Darstellungsparameter: Aktuell verwendete Einstellungen:
Skalierung der Graphiken ... ?
xyx+y,   Skalierungsfaktor:      Skalierung: Modus: x, Faktor: 1
Darstellungszeitraum ... ?
Vom - - bis: - -   Zeitraum: 04.04.2014 - 03.04.2015
Min/Max/Avg-Anzeige ... ?
Zeige MMA aktuell
Zeige MMA Monat
Zeige MMA alles
Zeige --A aktuell
Zeige --A Monat
Zeige --A alles
Keine MMA-Anzeige
MMA:
Average (ber die Originaldaten)
MMA-Basis: 04.04.2014 - 03.04.2015
Quicknavigation für Darstellung... ?
Tage:      1T, 2T, 3T, 5T -1T -2T -3T -5T +1T +2T +3T +5T
Wochen: 1W, 2W, 3W -1W -2W -3W +1W +2W +3W
Monate: 1M, 3M, 6M -1M -3M -6M +1M +3M +6M
Jahre:    1J, 3J, 5J, 10J -1J -3J -5J -10J +1J +3J +5J +10J
Nutze für die Darstellung ... ?
Originaldaten oder ...
Mittelwerte Minima Maxima auf...
Stundenbasis Tagesbasis Wochenbasis
Monatsbasis Jahresbasis      Datenbasis: Mittelwerte auf Tagesbasis
Darstellen als:
Statistik (Auto) Statistik J:M      Darstellung:
Zur Graphik,    zurück zur Übersicht aller Sensoren.
 
Tabellarische Datenbersicht: ?
 
Sensor: Nr:Datum:Temp:Feuchte:
Aussen-T/F 1 04-04-2014 00:00:00 15.37833 C 58.2833 %
2 05-04-2014 00:00:00 13.515 C 69.1583 %
3 06-04-2014 00:00:00 12.56833 C 67.4750 %
4 07-04-2014 00:00:00 17.47333 C 54.4333 %
5 08-04-2014 00:00:00 12.06833 C 53.4083 %
6 09-04-2014 00:00:00 8.37167 C 77.6667 %
7 10-04-2014 00:00:00 11.6175 C 64.2333 %
8 11-04-2014 00:00:00 12.46 C 65.9000 %
9 12-04-2014 00:00:00 13.47667 C 54.7250 %
10 13-04-2014 00:00:00 11.77 C 56.6917 %
11 14-04-2014 00:00:00 10.39833 C 56.4750 %
12 15-04-2014 00:00:00 7.21917 C 60.6750 %
13 16-04-2014 00:00:00 8.42083 C 58.9667 %
14 17-04-2014 00:00:00 10.6725 C 52.8167 %
15 18-04-2014 00:00:00 11.72333 C 49.8833 %
16 19-04-2014 00:00:00 11.07333 C 57.7083 %
17 20-04-2014 00:00:00 15.2525 C 56.9667 %
18 21-04-2014 00:00:00 12.4075 C 66.8500 %
19 22-04-2014 00:00:00 13.85083 C 70.9167 %
20 23-04-2014 00:00:00 14.20417 C 68.9250 %
21 24-04-2014 00:00:00 16.0275 C 64.6750 %
22 25-04-2014 00:00:00 17.41917 C 61.3833 %
23 26-04-2014 00:00:00 15.7325 C 58.6167 %
24 27-04-2014 00:00:00 13.7605 C 68.0420 %
25 28-04-2014 00:00:00 13.58417 C 63.8250 %
Sensor: Nr:Datum:Temp:Feuchte:
Aussen-T/F 26 29-04-2014 00:00:00 13.94417 C 76.6167 %
27 30-04-2014 00:00:00 14.89091 C 71.2231 %
28 01-05-2014 00:00:00 15.1 C 66.5417 %
29 02-05-2014 00:00:00 12.12917 C 71.6667 %
30 03-05-2014 00:00:00 12.01833 C 46.6583 %
31 04-05-2014 00:00:00 11.0725 C 53.3500 %
32 05-05-2014 00:00:00 13.77083 C 53.8583 %
33 06-05-2014 00:00:00 14.19417 C 57.6333 %
34 07-05-2014 00:00:00 13.45917 C 72.5500 %
35 08-05-2014 00:00:00 12.2475 C 73.3750 %
36 09-05-2014 00:00:00 13.70083 C 71.2167 %
37 10-05-2014 00:00:00 12.32167 C 67.7917 %
38 11-05-2014 00:00:00 11.89 C 66.5333 %
39 12-05-2014 00:00:00 11.46167 C 58.3000 %
40 13-05-2014 00:00:00 10.64583 C 70.4750 %
41 14-05-2014 00:00:00 11.03083 C 64.9333 %
42 15-05-2014 00:00:00 10.38417 C 64.4083 %
43 16-05-2014 00:00:00 14.005 C 56.9083 %
44 17-05-2014 00:00:00 14.52 C 58.3083 %
45 18-05-2014 00:00:00 15.88333 C 57.9583 %
46 19-05-2014 00:00:00 18.905 C 54.6000 %
47 20-05-2014 00:00:00 20.5625 C 47.7167 %
48 21-05-2014 00:00:00 21.21417 C 49.9583 %
49 22-05-2014 00:00:00 20.7625 C 51.8667 %
50 23-05-2014 00:00:00 16.46 C 76.2500 %
Sensor: Nr:Datum:Temp:Feuchte:
Aussen-T/F 51 24-05-2014 00:00:00 15.36083 C 67.1083 %
52 25-05-2014 00:00:00 16.33583 C 60.2917 %
53 26-05-2014 00:00:00 17.66917 C 61.6250 %
54 27-05-2014 00:00:00 15.22667 C 84.1333 %
55 28-05-2014 00:00:00 14.83333 C 69.7833 %
56 29-05-2014 00:00:00 13.815 C 72.2083 %
57 30-05-2014 00:00:00 14.52583 C 50.4083 %
58 31-05-2014 00:00:00 14.00583 C 58.2833 %
59 01-06-2014 00:00:00 16.22167 C 52.6000 %
60 02-06-2014 00:00:00 17.8275 C 49.1333 %
61 03-06-2014 00:00:00 16.55417 C 55.6250 %
62 04-06-2014 00:00:00 15.92417 C 69.9083 %
63 05-06-2014 00:00:00 15.26 C 55.0083 %
64 06-06-2014 00:00:00 17.89417 C 53.9500 %
65 07-06-2014 00:00:00 21.3125 C 55.1667 %
66 08-06-2014 00:00:00 25.15833 C 53.3583 %
67 09-06-2014 00:00:00 26.89917 C 51.4583 %
68 10-06-2014 00:00:00 24.50083 C 52.5333 %
69 11-06-2014 00:00:00 21.1525 C 63.8667 %
70 12-06-2014 00:00:00 21.07 C 51.5917 %
71 13-06-2014 00:00:00 19.54333 C 51.4250 %
72 14-06-2014 00:00:00 18.24833 C 47.8083 %
73 15-06-2014 00:00:00 17.39 C 51.1500 %
74 16-06-2014 00:00:00 16.1625 C 57.3417 %
75 17-06-2014 00:00:00 18.13 C 49.2417 %
Sensor: Nr:Datum:Temp:Feuchte:
Aussen-T/F 76 18-06-2014 00:00:00 18.77417 C 54.6167 %
77 19-06-2014 00:00:00 16.59667 C 57.9417 %
78 20-06-2014 00:00:00 15.5075 C 59.4083 %
79 21-06-2014 00:00:00 17.8575 C 48.0167 %
80 22-06-2014 00:00:00 17.71833 C 49.3250 %
81 23-06-2014 00:00:00 17.73917 C 49.0750 %
82 24-06-2014 00:00:00 16.37083 C 62.7333 %
83 25-06-2014 00:00:00 16.6625 C 55.5583 %
84 26-06-2014 00:00:00 17.295 C 48.7333 %
85 27-06-2014 00:00:00 17.98 C 51.8500 %
86 28-06-2014 00:00:00 16.63583 C 73.8917 %
87 29-06-2014 00:00:00 14.55333 C 85.9917 %
88 30-06-2014 00:00:00 16.2075 C 65.0917 %
89 01-07-2014 00:00:00 15.93 C 56.7500 %
90 02-07-2014 00:00:00 17.66083 C 51.8083 %
91 03-07-2014 00:00:00 20.67083 C 47.1750 %
92 04-07-2014 00:00:00 20.79667 C 51.3667 %
93 05-07-2014 00:00:00 20.7075 C 60.1333 %
94 06-07-2014 00:00:00 24.195 C 55.3667 %
95 07-07-2014 00:00:00 21.00667 C 52.2417 %
96 08-07-2014 00:00:00 15.4325 C 81.9333 %
97 09-07-2014 00:00:00 12.565 C 90.3333 %
98 10-07-2014 00:00:00 17.89833 C 77.5917 %
99 11-07-2014 00:00:00 19.6525 C 72.4000 %
100 12-07-2014 00:00:00 19.19417 C 71.7500 %
Sensor: Nr:Datum:Temp:Feuchte:
Aussen-T/F 101 13-07-2014 00:00:00 19.30917 C 70.4417 %
102 14-07-2014 00:00:00 19.5325 C 63.9500 %
103 15-07-2014 00:00:00 20.23167 C 61.1500 %
104 16-07-2014 00:00:00 23.38417 C 54.8917 %
105 17-07-2014 00:00:00 23.18167 C 56.1500 %
106 18-07-2014 00:00:00 24.74583 C 52.4583 %
107 19-07-2014 00:00:00 25.02083 C 49.1667 %
108 20-07-2014 00:00:00 23.255 C 62.9250 %
109 21-07-2014 00:00:00 20.67917 C 76.0833 %
110 22-07-2014 00:00:00 23.93167 C 66.2750 %
111 23-07-2014 00:00:00 24.08167 C 57.3583 %
112 24-07-2014 00:00:00 20.5825 C 59.2333 %
113 25-07-2014 00:00:00 20.035 C 65.2583 %
114 26-07-2014 00:00:00 21.4275 C 61.7750 %
115 27-07-2014 00:00:00 22.06667 C 60.3583 %
116 28-07-2014 00:00:00 21.97917 C 62.9167 %
117 29-07-2014 00:00:00 20.16333 C 85.0500 %
118 30-07-2014 00:00:00 20.2625 C 72.3750 %
119 31-07-2014 00:00:00 21.765 C 58.8083 %
120 01-08-2014 00:00:00 21.43167 C 62.8000 %
121 02-08-2014 00:00:00 20.69 C 68.4917 %
122 03-08-2014 00:00:00 21.8375 C 62.9583 %
123 04-08-2014 00:00:00 19.43667 C 70.3250 %
124 05-08-2014 00:00:00 19.66167 C 65.3333 %
125 06-08-2014 00:00:00 17.87 C 70.1750 %
Sensor: Nr:Datum:Temp:Feuchte:
Aussen-T/F 126 07-08-2014 00:00:00 19.71583 C 71.2417 %
127 08-08-2014 00:00:00 18.99244 C 76.3109 %
128 09-08-2014 00:00:00 20.905 C 64.4167 %
129 10-08-2014 00:00:00 19.14333 C 76.2833 %
130 11-08-2014 00:00:00 17.42917 C 68.8917 %
131 12-08-2014 00:00:00 18.35 C 56.2083 %
132 13-08-2014 00:00:00 16.19917 C 76.1250 %
133 14-08-2014 00:00:00 16.49917 C 71.6750 %
134 15-08-2014 00:00:00 14.77167 C 80.5083 %
135 16-08-2014 00:00:00 15.25667 C 79.6417 %
136 17-08-2014 00:00:00 15.9275 C 65.1333 %
137 18-08-2014 00:00:00 16.58583 C 59.3583 %
138 19-08-2014 00:00:00 13.895 C 70.0500 %
139 20-08-2014 00:00:00 13.07083 C 69.7583 %
140 21-08-2014 00:00:00 13.27167 C 69.0000 %
141 22-08-2014 00:00:00 14.33583 C 63.0167 %
142 23-08-2014 00:00:00 14.56 C 69.4917 %
143 24-08-2014 00:00:00 11.57667 C 85.1000 %
144 25-08-2014 00:00:00 13.18167 C 84.9333 %
145 26-08-2014 00:00:00 14.67667 C 89.2083 %
146 27-08-2014 00:00:00 15.95583 C 79.6417 %
147 28-08-2014 00:00:00 15.91167 C 80.5250 %
148 29-08-2014 00:00:00 18.03333 C 76.0000 %
149 30-08-2014 00:00:00 16.32917 C 79.4417 %
150 31-08-2014 00:00:00 14.66 C 83.3833 %
Sensor: Nr:Datum:Temp:Feuchte:
Aussen-T/F 151 01-09-2014 00:00:00 14.71333 C 80.6500 %
152 02-09-2014 00:00:00 14.64 C 78.9167 %
153 03-09-2014 00:00:00 15.14 C 76.4500 %
154 04-09-2014 00:00:00 17.0775 C 74.2667 %
155 05-09-2014 00:00:00 18.66833 C 75.6083 %
156 06-09-2014 00:00:00 18.33917 C 76.5167 %
157 07-09-2014 00:00:00 19.26417 C 69.1417 %
158 08-09-2014 00:00:00 18.5175 C 67.4917 %
159 09-09-2014 00:00:00 16.67417 C 64.7000 %
160 10-09-2014 00:00:00 14.83583 C 66.0250 %
161 11-09-2014 00:00:00 15.42417 C 66.8583 %
162 12-09-2014 00:00:00 14.2075 C 70.2000 %
163 13-09-2014 00:00:00 16.16167 C 74.0667 %
164 14-09-2014 00:00:00 17.56417 C 69.1833 %
165 15-09-2014 00:00:00 16.5525 C 75.1833 %
166 16-09-2014 00:00:00 17.40583 C 74.2083 %
167 17-09-2014 00:00:00 16.28917 C 78.0000 %
168 18-09-2014 00:00:00 17.725 C 83.2083 %
169 19-09-2014 00:00:00 18.6325 C 82.2083 %
170 20-09-2014 00:00:00 17.03083 C 86.5333 %
171 21-09-2014 00:00:00 15.27583 C 87.6250 %
172 22-09-2014 00:00:00 12.79333 C 73.3750 %
173 23-09-2014 00:00:00 10.37083 C 78.9833 %
174 24-09-2014 00:00:00 11.275 C 78.3750 %
175 25-09-2014 00:00:00 13.71917 C 72.4500 %
Sensor: Nr:Datum:Temp:Feuchte:
Aussen-T/F 176 26-09-2014 00:00:00 14.2225 C 76.1083 %
177 27-09-2014 00:00:00 15.72083 C 78.0000 %
178 28-09-2014 00:00:00 14.60417 C 81.9750 %
179 29-09-2014 00:00:00 15.5 C 83.5250 %
180 30-09-2014 00:00:00 16.74667 C 82.0667 %
181 01-10-2014 00:00:00 15.65667 C 83.6083 %
182 02-10-2014 00:00:00 14.43333 C 84.2583 %
183 03-10-2014 00:00:00 13.82917 C 83.5917 %
184 04-10-2014 00:00:00 12.6425 C 83.8250 %
185 05-10-2014 00:00:00 13.02917 C 82.9917 %
186 06-10-2014 00:00:00 14.35833 C 77.2833 %
187 07-10-2014 00:00:00 13.26667 C 84.4833 %
188 08-10-2014 00:00:00 13.03417 C 92.3583 %
189 09-10-2014 00:00:00 15.08333 C 91.5583 %
190 10-10-2014 00:00:00 13.88 C 89.8167 %
191 11-10-2014 00:00:00 14.66417 C 86.5417 %
192 12-10-2014 00:00:00 12.50333 C 86.5667 %
193 13-10-2014 00:00:00 14.65667 C 87.5917 %
194 14-10-2014 00:00:00 12.4325 C 86.2667 %
195 15-10-2014 00:00:00 11.4075 C 89.0583 %
196 16-10-2014 00:00:00 13.5925 C 88.3917 %
197 17-10-2014 00:00:00 13.47833 C 86.3917 %
198 18-10-2014 00:00:00 12.195 C 90.8167 %
199 19-10-2014 00:00:00 14.28333 C 85.3750 %
200 20-10-2014 00:00:00 14.38917 C 74.1667 %
Sensor: Nr:Datum:Temp:Feuchte:
Aussen-T/F 201 21-10-2014 00:00:00 11.20083 C 75.2750 %
202 22-10-2014 00:00:00 8.1 C 78.4833 %
203 23-10-2014 00:00:00 9.89667 C 79.4333 %
204 24-10-2014 00:00:00 10.00333 C 83.3000 %
205 25-10-2014 00:00:00 11.1725 C 86.7750 %
206 26-10-2014 00:00:00 10.8064 C 88.2400 %
207 27-10-2014 00:00:00 8.985 C 88.6167 %
208 28-10-2014 00:00:00 7.8375 C 74.6167 %
209 29-10-2014 00:00:00 8.90333 C 82.7167 %
210 30-10-2014 00:00:00 11.62417 C 89.8833 %
211 31-10-2014 00:00:00 11.50917 C 89.3417 %
212 01-11-2014 00:00:00 10.5225 C 91.9333 %
213 02-11-2014 00:00:00 10.71667 C 90.0417 %
214 03-11-2014 00:00:00 13.025 C 80.6083 %
215 04-11-2014 00:00:00 10.72833 C 91.1417 %
216 05-11-2014 00:00:00 8.93667 C 89.0583 %
217 06-11-2014 00:00:00 5.9725 C 85.6667 %
218 07-11-2014 00:00:00 5.22917 C 87.8250 %
219 08-11-2014 00:00:00 7.955 C 83.9750 %
220 09-11-2014 00:00:00 6.18667 C 91.2250 %
221 10-11-2014 00:00:00 8.08 C 90.5167 %
222 11-11-2014 00:00:00 8.05167 C 86.8417 %
223 12-11-2014 00:00:00 9.01917 C 87.1250 %
224 13-11-2014 00:00:00 9.21 C 90.1667 %
225 14-11-2014 00:00:00 9.9875 C 79.0833 %
Sensor: Nr:Datum:Temp:Feuchte:
Aussen-T/F 226 15-11-2014 00:00:00 9.22083 C 87.0500 %
227 16-11-2014 00:00:00 8.2275 C 94.2500 %
228 17-11-2014 00:00:00 8.16083 C 93.8250 %
229 18-11-2014 00:00:00 8.18583 C 91.6083 %
230 19-11-2014 00:00:00 7.55 C 90.6417 %
231 20-11-2014 00:00:00 6.13167 C 86.5333 %
232 21-11-2014 00:00:00 4.68583 C 89.6833 %
233 22-11-2014 00:00:00 5.0825 C 90.6667 %
234 23-11-2014 00:00:00 5.43667 C 93.0500 %
235 24-11-2014 00:00:00 6.43417 C 88.6917 %
236 25-11-2014 00:00:00 2.7725 C 94.0417 %
237 26-11-2014 00:00:00 4.77167 C 78.6500 %
238 27-11-2014 00:00:00 5.515 C 84.1250 %
239 28-11-2014 00:00:00 5.085 C 80.9083 %
240 29-11-2014 00:00:00 4.1225 C 76.3000 %
241 30-11-2014 00:00:00 3.5875 C 80.5583 %
242 01-12-2014 00:00:00 2.88167 C 80.1500 %
243 02-12-2014 00:00:00 1.2775 C 80.5167 %
244 03-12-2014 00:00:00 1.37917 C 88.1667 %
245 04-12-2014 00:00:00 1.855 C 84.1917 %
246 05-12-2014 00:00:00 3.6275 C 84.5500 %
247 06-12-2014 00:00:00 3.9425 C 88.7167 %
248 07-12-2014 00:00:00 3.6 C 85.1667 %
249 08-12-2014 00:00:00 2.20167 C 88.2083 %
250 09-12-2014 00:00:00 1.87333 C 93.5500 %
Sensor: Nr:Datum:Temp:Feuchte:
Aussen-T/F 251 10-12-2014 00:00:00 3.53667 C 82.2500 %
252 11-12-2014 00:00:00 5.345 C 81.6500 %
253 12-12-2014 00:00:00 8.3375 C 73.7417 %
254 13-12-2014 00:00:00 3.93083 C 94.2750 %
255 14-12-2014 00:00:00 2.09344 C 93.4344 %
256 15-12-2014 00:00:00 2.64417 C 88.8417 %
257 16-12-2014 00:00:00 5.34454 C 84.8403 %
258 17-12-2014 00:00:00 5.2575 C 85.2500 %
259 18-12-2014 00:00:00 11.2075 C 79.4583 %
260 19-12-2014 00:00:00 9.8525 C 74.0083 %
261 20-12-2014 00:00:00 5.07917 C 74.9583 %
262 21-12-2014 00:00:00 5.61176 C 78.9496 %
263 22-12-2014 00:00:00 7.795 C 74.1500 %
264 23-12-2014 00:00:00 9.51333 C 70.7417 %
265 24-12-2014 00:00:00 7.80833 C 72.6167 %
266 25-12-2014 00:00:00 4.1625 C 78.4917 %
267 26-12-2014 00:00:00 2.16667 C 93.7917 %
268 27-12-2014 00:00:00 0.65333 C 91.3250 %
269 28-12-2014 00:00:00 -3.11 C 63.8667 %
270 29-12-2014 00:00:00 -1.09417 C 80.2000 %
271 30-12-2014 00:00:00 1.00917 C 85.8333 %
272 31-12-2014 00:00:00 2.03667 C 89.7917 %
273 01-01-2015 00:00:00 1.09917 C 91.6083 %
274 02-01-2015 00:00:00 2.28833 C 81.9083 %
275 03-01-2015 00:00:00 1.56917 C 89.7000 %
Sensor: Nr:Datum:Temp:Feuchte:
Aussen-T/F 276 04-01-2015 00:00:00 2.34 C 88.6583 %
277 05-01-2015 00:00:00 -1.0425 C 91.8583 %
278 06-01-2015 00:00:00 -1.56083 C 89.2667 %
279 07-01-2015 00:00:00 1.58583 C 87.1583 %
280 08-01-2015 00:00:00 5.70417 C 86.5583 %
281 09-01-2015 00:00:00 8.4875 C 74.8583 %
282 10-01-2015 00:00:00 12.01667 C 67.4167 %
283 11-01-2015 00:00:00 4.37 C 61.3667 %
284 12-01-2015 00:00:00 6.34917 C 69.2250 %
285 13-01-2015 00:00:00 9.21583 C 60.7333 %
286 14-01-2015 00:00:00 4.66 C 76.2917 %
287 15-01-2015 00:00:00 8.05 C 67.8417 %
288 16-01-2015 00:00:00 6.22 C 78.4250 %
289 17-01-2015 00:00:00 2.72417 C 85.6167 %
290 18-01-2015 00:00:00 1.15 C 74.1750 %
291 19-01-2015 00:00:00 0.40417 C 80.5083 %
292 20-01-2015 00:00:00 0.44833 C 82.7833 %
293 21-01-2015 00:00:00 -0.72 C 78.1000 %
294 22-01-2015 00:00:00 0.885 C 71.2833 %
295 23-01-2015 00:00:00 0.86333 C 79.0417 %
296 24-01-2015 00:00:00 0.37417 C 85.8500 %
297 25-01-2015 00:00:00 1.53333 C 90.9000 %
298 26-01-2015 00:00:00 2.28917 C 93.3167 %
299 27-01-2015 00:00:00 3.08417 C 89.7167 %
300 28-01-2015 00:00:00 3.30667 C 85.1833 %
Sensor: Nr:Datum:Temp:Feuchte:
Aussen-T/F 301 29-01-2015 00:00:00 2.22083 C 80.0167 %
302 30-01-2015 00:00:00 1.16333 C 84.4583 %
303 31-01-2015 00:00:00 1.24833 C 77.4833 %
304 01-02-2015 00:00:00 0.8025 C 88.2167 %
305 02-02-2015 00:00:00 1.6425 C 81.6583 %
306 03-02-2015 00:00:00 0.70917 C 78.3833 %
307 04-02-2015 00:00:00 -0.89583 C 77.4417 %
308 05-02-2015 00:00:00 -1.95583 C 67.3417 %
309 06-02-2015 00:00:00 -0.53833 C 54.3833 %
310 07-02-2015 00:00:00 -1.495 C 65.9833 %
311 08-02-2015 00:00:00 2.14833 C 71.8583 %
312 09-02-2015 00:00:00 3.22167 C 83.9500 %
313 10-02-2015 00:00:00 4.31833 C 84.9917 %
314 11-02-2015 00:00:00 3.44417 C 74.2167 %
315 12-02-2015 00:00:00 2.35583 C 77.4917 %
316 13-02-2015 00:00:00 1.6825 C 78.6167 %
317 14-02-2015 00:00:00 2.955 C 76.5583 %
318 15-02-2015 00:00:00 0.83417 C 79.7083 %
319 16-02-2015 00:00:00 1.375 C 77.0917 %
320 17-02-2015 00:00:00 2.8875 C 76.0583 %
321 18-02-2015 00:00:00 3.53167 C 78.0250 %
322 19-02-2015 00:00:00 0.41083 C 77.0500 %
323 20-02-2015 00:00:00 6.3125 C 63.5083 %
324 21-02-2015 00:00:00 4.67167 C 74.6833 %
325 22-02-2015 00:00:00 3.25333 C 72.5333 %
Sensor: Nr:Datum:Temp:Feuchte:
Aussen-T/F 326 23-02-2015 00:00:00 2.82333 C 82.9333 %
327 24-02-2015 00:00:00 4.16917 C 75.1833 %
328 25-02-2015 00:00:00 3.6775 C 82.3250 %
329 26-02-2015 00:00:00 5.68083 C 82.3917 %
330 27-02-2015 00:00:00 4.77667 C 85.3250 %
331 28-02-2015 00:00:00 2.12083 C 77.7167 %
332 01-03-2015 00:00:00 7.28917 C 69.4583 %
333 02-03-2015 00:00:00 5.68167 C 69.3917 %
334 03-03-2015 00:00:00 4.9725 C 68.5583 %
335 04-03-2015 00:00:00 3.96333 C 75.3500 %
336 05-03-2015 00:00:00 4.70417 C 71.3750 %
337 06-03-2015 00:00:00 3.62667 C 75.5083 %
338 07-03-2015 00:00:00 4.36667 C 72.3417 %
339 08-03-2015 00:00:00 5.24417 C 74.3417 %
340 09-03-2015 00:00:00 7.20833 C 73.7333 %
341 10-03-2015 00:00:00 5.26667 C 93.7583 %
342 11-03-2015 00:00:00 3.94917 C 79.4417 %
343 12-03-2015 00:00:00 3.2625 C 73.6750 %
344 13-03-2015 00:00:00 3.52667 C 65.1000 %
345 14-03-2015 00:00:00 4.09417 C 70.8833 %
346 15-03-2015 00:00:00 4.17667 C 81.2500 %
347 16-03-2015 00:00:00 4.02833 C 78.7833 %
348 17-03-2015 00:00:00 6.42917 C 74.4250 %
349 18-03-2015 00:00:00 8.1825 C 73.3667 %
350 19-03-2015 00:00:00 7.68583 C 80.3250 %
Sensor: Nr:Datum:Temp:Feuchte:
Aussen-T/F 351 20-03-2015 00:00:00 7.97833 C 68.2250 %
352 21-03-2015 00:00:00 5.58917 C 79.9000 %
353 22-03-2015 00:00:00 4.97851 C 70.1157 %
354 23-03-2015 00:00:00 3.63333 C 72.3083 %
355 24-03-2015 00:00:00 6.91333 C 68.1583 %
356 25-03-2015 00:00:00 7.45167 C 69.7333 %
357 26-03-2015 00:00:00 6.89083 C 64.1917 %
358 27-03-2015 00:00:00 7.275 C 60.9667 %
359 28-03-2015 00:00:00 8.14583 C 66.5167 %
360 29-03-2015 00:00:00 11.21043 C 69.8870 %
361 30-03-2015 00:00:00 7.73417 C 58.6750 %
362 31-03-2015 00:00:00 9.57083 C 61.3917 %
363 01-04-2015 00:00:00 5.7575 C 57.7667 %
364 02-04-2015 00:00:00 5.965 C 61.6500 %
365 03-04-2015 00:00:00 5.47917 C 60.3083 %
Sensor: Nr:Datum:Temp:Feuchte:
G-T/H 1 04-04-2014 00:00:00 14.86167 C 63.5000 %
2 05-04-2014 00:00:00 14.37833 C 66.5500 %
3 06-04-2014 00:00:00 13.3425 C 67.7083 %
4 07-04-2014 00:00:00 15.5925 C 64.2167 %
5 08-04-2014 00:00:00 14.91167 C 62.9500 %
6 09-04-2014 00:00:00 12.83186 C 58.7788 %
7 10-04-2014 00:00:00 12.4675 C 63.7667 %
8 11-04-2014 00:00:00 12.72083 C 66.1833 %
9 12-04-2014 00:00:00 13.15833 C 66.5417 %
10 13-04-2014 00:00:00 13.01417 C 65.9417 %
11 14-04-2014 00:00:00 12.50417 C 64.6500 %
12 15-04-2014 00:00:00 11.28083 C 64.1167 %
13 16-04-2014 00:00:00 11.215 C 58.2917 %
14 17-04-2014 00:00:00 11.22917 C 59.8333 %
15 18-04-2014 00:00:00 11.675 C 58.0083 %
16 19-04-2014 00:00:00 9.35667 C 62.6250 %
17 20-04-2014 00:00:00 11.9125 C 65.5083 %
18 21-04-2014 00:00:00 12.63333 C 66.2417 %
19 22-04-2014 00:00:00 13.54583 C 67.1000 %
20 23-04-2014 00:00:00 14.38333 C 65.5333 %
21 24-04-2014 00:00:00 14.26083 C 68.0333 %
22 25-04-2014 00:00:00 14.4725 C 68.8333 %
23 26-04-2014 00:00:00 15.43083 C 65.9417 %
24 27-04-2014 00:00:00 14.86639 C 67.4118 %
25 28-04-2014 00:00:00 14.57 C 63.8083 %
Sensor: Nr:Datum:Temp:Feuchte:
G-T/H 26 29-04-2014 00:00:00 14.48417 C 67.3917 %
27 30-04-2014 00:00:00 14.13554 C 69.5289 %
28 01-05-2014 00:00:00 15.09083 C 66.7250 %
29 02-05-2014 00:00:00 14.53167 C 67.7250 %
30 03-05-2014 00:00:00 13.44583 C 60.5667 %
31 04-05-2014 00:00:00 12.65833 C 59.3583 %
32 05-05-2014 00:00:00 12.77417 C 62.5750 %
33 06-05-2014 00:00:00 13.36917 C 65.2167 %
34 07-05-2014 00:00:00 13.8925 C 68.7333 %
35 08-05-2014 00:00:00 13.49833 C 69.0583 %
36 09-05-2014 00:00:00 13.85833 C 69.1417 %
37 10-05-2014 00:00:00 13.89083 C 68.0250 %
38 11-05-2014 00:00:00 13.3475 C 68.6250 %
39 12-05-2014 00:00:00 13.04083 C 67.3917 %
40 13-05-2014 00:00:00 12.96 C 68.6417 %
41 14-05-2014 00:00:00 13.0375 C 62.8333 %
42 15-05-2014 00:00:00 12.93333 C 63.6083 %
43 16-05-2014 00:00:00 13.87583 C 60.6000 %
44 17-05-2014 00:00:00 14.38333 C 62.0083 %
45 18-05-2014 00:00:00 14.70833 C 65.4917 %
46 19-05-2014 00:00:00 16.89 C 60.6333 %
47 20-05-2014 00:00:00 18.75 C 56.5250 %
48 21-05-2014 00:00:00 19.6325 C 58.2667 %
49 22-05-2014 00:00:00 18.89167 C 62.4667 %
50 23-05-2014 00:00:00 17.48 C 66.1167 %
Sensor: Nr:Datum:Temp:Feuchte:
G-T/H 51 24-05-2014 00:00:00 16.70417 C 64.5083 %
52 25-05-2014 00:00:00 15.93667 C 63.8000 %
53 26-05-2014 00:00:00 16.28167 C 67.4333 %
54 27-05-2014 00:00:00 16.28 C 69.2833 %
55 28-05-2014 00:00:00 15.63917 C 70.2417 %
56 29-05-2014 00:00:00 15.22083 C 69.9333 %
57 30-05-2014 00:00:00 15.05167 C 64.8583 %
58 31-05-2014 00:00:00 14.76917 C 63.2833 %
59 01-06-2014 00:00:00 15.46917 C 66.3500 %
60 02-06-2014 00:00:00 15.84083 C 64.9417 %
61 03-06-2014 00:00:00 16.17583 C 66.5083 %
62 04-06-2014 00:00:00 16.16333 C 68.2917 %
63 05-06-2014 00:00:00 15.67083 C 64.8417 %
64 06-06-2014 00:00:00 15.69417 C 63.4833 %
65 07-06-2014 00:00:00 17.08833 C 68.5417 %
66 08-06-2014 00:00:00 18.66667 C 70.1500 %
67 09-06-2014 00:00:00 19.94667 C 71.0833 %
68 10-06-2014 00:00:00 20.54833 C 69.1333 %
69 11-06-2014 00:00:00 20.49417 C 68.5833 %
70 12-06-2014 00:00:00 19.0825 C 66.8917 %
71 13-06-2014 00:00:00 18.65833 C 63.8750 %
72 14-06-2014 00:00:00 18.28667 C 62.2333 %
73 15-06-2014 00:00:00 17.62 C 63.2833 %
74 16-06-2014 00:00:00 17.2275 C 64.1917 %
75 17-06-2014 00:00:00 17.22417 C 65.7500 %
Sensor: Nr:Datum:Temp:Feuchte:
G-T/H 76 18-06-2014 00:00:00 17.375 C 66.3250 %
77 19-06-2014 00:00:00 17.47583 C 64.5417 %
78 20-06-2014 00:00:00 16.8825 C 65.8667 %
79 21-06-2014 00:00:00 16.61667 C 64.3250 %
80 22-06-2014 00:00:00 16.6625 C 63.2833 %
81 23-06-2014 00:00:00 16.9175 C 64.1750 %
82 24-06-2014 00:00:00 17.17417 C 65.2833 %
83 25-06-2014 00:00:00 16.9175 C 63.6417 %
84 26-06-2014 00:00:00 16.62917 C 61.0083 %
85 27-06-2014 00:00:00 17.06417 C 62.2083 %
86 28-06-2014 00:00:00 17.32167 C 66.2333 %
87 29-06-2014 00:00:00 16.6875 C 69.4083 %
88 30-06-2014 00:00:00 16.29333 C 68.2667 %
89 01-07-2014 00:00:00 16.9675 C 60.0917 %
90 02-07-2014 00:00:00 17.745 C 55.9417 %
91 03-07-2014 00:00:00 17.75583 C 59.3917 %
92 04-07-2014 00:00:00 18.50083 C 62.7083 %
93 05-07-2014 00:00:00 18.98833 C 65.4667 %
94 06-07-2014 00:00:00 19.21667 C 67.3000 %
95 07-07-2014 00:00:00 19.9525 C 58.9583 %
96 08-07-2014 00:00:00 18.97333 C 62.5583 %
97 09-07-2014 00:00:00 16.82583 C 67.1583 %
98 10-07-2014 00:00:00 16.5925 C 69.5667 %
99 11-07-2014 00:00:00 17.46583 C 71.2667 %
100 12-07-2014 00:00:00 18.0925 C 71.4167 %
Sensor: Nr:Datum:Temp:Feuchte:
G-T/H 101 13-07-2014 00:00:00 18.02833 C 72.0000 %
102 14-07-2014 00:00:00 18.41333 C 71.1750 %
103 15-07-2014 00:00:00 19.91417 C 63.6083 %
104 16-07-2014 00:00:00 21.85917 C 57.9417 %
105 17-07-2014 00:00:00 22.515 C 57.5500 %
106 18-07-2014 00:00:00 24.10833 C 54.2417 %
107 19-07-2014 00:00:00 22.7825 C 59.1583 %
108 20-07-2014 00:00:00 22.22833 C 64.1083 %
109 21-07-2014 00:00:00 21.21667 C 67.0167 %
110 22-07-2014 00:00:00 21.64417 C 68.6583 %
111 23-07-2014 00:00:00 23.08917 C 60.6833 %
112 24-07-2014 00:00:00 22.405 C 57.2167 %
113 25-07-2014 00:00:00 21.54 C 60.4167 %
114 26-07-2014 00:00:00 20.825 C 63.5917 %
115 27-07-2014 00:00:00 20.66417 C 65.7917 %
116 28-07-2014 00:00:00 20.84417 C 66.9333 %
117 29-07-2014 00:00:00 20.55333 C 69.0833 %
118 30-07-2014 00:00:00 20.4 C 67.0083 %
119 31-07-2014 00:00:00 20.0625 C 65.5500 %
120 01-08-2014 00:00:00 19.965 C 68.6333 %
121 02-08-2014 00:00:00 21.05833 C 69.7333 %
122 03-08-2014 00:00:00 21.155 C 70.5750 %
123 04-08-2014 00:00:00 21.04833 C 68.0000 %
124 05-08-2014 00:00:00 20.5525 C 63.7833 %
125 06-08-2014 00:00:00 20.38083 C 62.4333 %
Sensor: Nr:Datum:Temp:Feuchte:
G-T/H 126 07-08-2014 00:00:00 19.99333 C 66.6500 %
127 08-08-2014 00:00:00 20.70084 C 70.2185 %
128 09-08-2014 00:00:00 20.71083 C 69.7333 %
129 10-08-2014 00:00:00 20.08917 C 68.7667 %
130 11-08-2014 00:00:00 19.19 C 65.9083 %
131 12-08-2014 00:00:00 19.14333 C 59.7083 %
132 13-08-2014 00:00:00 18.75333 C 64.9000 %
133 14-08-2014 00:00:00 18.32833 C 65.2750 %
134 15-08-2014 00:00:00 17.98 C 68.0750 %
135 16-08-2014 00:00:00 17.27 C 69.4333 %
136 17-08-2014 00:00:00 17.1775 C 70.0417 %
137 18-08-2014 00:00:00 17.63 C 64.5000 %
138 19-08-2014 00:00:00 17.195 C 63.3167 %
139 20-08-2014 00:00:00 16.40083 C 64.1250 %
140 21-08-2014 00:00:00 15.94583 C 62.9083 %
141 22-08-2014 00:00:00 16.31333 C 64.1083 %
142 23-08-2014 00:00:00 16.15167 C 66.7167 %
143 24-08-2014 00:00:00 15.45 C 68.3750 %
144 25-08-2014 00:00:00 15.32167 C 71.4833 %
145 26-08-2014 00:00:00 15.875 C 73.4333 %
146 27-08-2014 00:00:00 16.25 C 73.1583 %
147 28-08-2014 00:00:00 17.3525 C 73.8417 %
148 29-08-2014 00:00:00 18.265 C 73.5583 %
149 30-08-2014 00:00:00 17.08 C 73.7000 %
150 31-08-2014 00:00:00 17.19667 C 73.1250 %
Sensor: Nr:Datum:Temp:Feuchte:
G-T/H 151 01-09-2014 00:00:00 16.70917 C 71.7167 %
152 02-09-2014 00:00:00 16.52917 C 72.5417 %
153 03-09-2014 00:00:00 16.59417 C 73.4000 %
154 04-09-2014 00:00:00 16.78917 C 74.0333 %
155 05-09-2014 00:00:00 17.9875 C 74.8500 %
156 06-09-2014 00:00:00 18.77417 C 75.6667 %
157 07-09-2014 00:00:00 18.30417 C 76.0083 %
158 08-09-2014 00:00:00 18.67417 C 70.1667 %
159 09-09-2014 00:00:00 18.07667 C 65.7833 %
160 10-09-2014 00:00:00 17.07583 C 66.1333 %
161 11-09-2014 00:00:00 16.73417 C 68.4417 %
162 12-09-2014 00:00:00 16.07417 C 68.7000 %
163 13-09-2014 00:00:00 16.46417 C 72.0000 %
164 14-09-2014 00:00:00 16.74167 C 73.5333 %
165 15-09-2014 00:00:00 16.895 C 74.0417 %
166 16-09-2014 00:00:00 17.9525 C 73.7083 %
167 17-09-2014 00:00:00 18.10833 C 72.9167 %
168 18-09-2014 00:00:00 17.5325 C 75.5083 %
169 19-09-2014 00:00:00 18.6475 C 78.8083 %
170 20-09-2014 00:00:00 17.78667 C 81.2167 %
171 21-09-2014 00:00:00 16.94833 C 80.1833 %
172 22-09-2014 00:00:00 15.92667 C 72.7250 %
173 23-09-2014 00:00:00 14.2925 C 67.6583 %
174 24-09-2014 00:00:00 14.0675 C 69.1583 %
175 25-09-2014 00:00:00 14.93167 C 71.0000 %
Sensor: Nr:Datum:Temp:Feuchte:
G-T/H 176 26-09-2014 00:00:00 15.16667 C 72.6250 %
177 27-09-2014 00:00:00 15.765 C 74.5750 %
178 28-09-2014 00:00:00 15.525 C 75.0750 %
179 29-09-2014 00:00:00 16.46833 C 76.8000 %
180 30-09-2014 00:00:00 16.60417 C 78.0417 %
181 01-10-2014 00:00:00 17.0425 C 77.1500 %
182 02-10-2014 00:00:00 16.42167 C 76.4917 %
183 03-10-2014 00:00:00 15.75333 C 76.9833 %
184 04-10-2014 00:00:00 15.44583 C 75.1333 %
185 05-10-2014 00:00:00 15.09583 C 76.1500 %
186 06-10-2014 00:00:00 15.25 C 77.0000 %
187 07-10-2014 00:00:00 15.26417 C 77.1917 %
188 08-10-2014 00:00:00 14.83083 C 78.1083 %
189 09-10-2014 00:00:00 15.4 C 78.9500 %
190 10-10-2014 00:00:00 15.29167 C 78.4333 %
191 11-10-2014 00:00:00 15.45333 C 79.0000 %
192 12-10-2014 00:00:00 14.96417 C 77.7500 %
193 13-10-2014 00:00:00 15.15833 C 78.6083 %
194 14-10-2014 00:00:00 14.8575 C 78.4500 %
195 15-10-2014 00:00:00 14.27833 C 78.2167 %
196 16-10-2014 00:00:00 14.41667 C 79.4667 %
197 17-10-2014 00:00:00 14.72333 C 79.9833 %
198 18-10-2014 00:00:00 14.7725 C 80.0167 %
199 19-10-2014 00:00:00 14.5575 C 81.0833 %
200 20-10-2014 00:00:00 15.14583 C 78.1083 %
Sensor: Nr:Datum:Temp:Feuchte:
G-T/H 201 21-10-2014 00:00:00 14.3925 C 75.7917 %
202 22-10-2014 00:00:00 12.79583 C 70.0750 %
203 23-10-2014 00:00:00 12.72917 C 76.0667 %
204 24-10-2014 00:00:00 12.91083 C 76.3833 %
205 25-10-2014 00:00:00 13.18833 C 78.3000 %
206 26-10-2014 00:00:00 13.5352 C 78.8400 %
207 27-10-2014 00:00:00 12.75667 C 76.8083 %
208 28-10-2014 00:00:00 12.25083 C 72.4417 %
209 29-10-2014 00:00:00 12.08167 C 73.0250 %
210 30-10-2014 00:00:00 12.88417 C 78.5250 %
211 31-10-2014 00:00:00 13.18333 C 81.5000 %
212 01-11-2014 00:00:00 13.24833 C 78.9333 %
213 02-11-2014 00:00:00 13.02083 C 79.7917 %
214 03-11-2014 00:00:00 13.45833 C 80.7917 %
215 04-11-2014 00:00:00 13.52417 C 80.6833 %
216 05-11-2014 00:00:00 12.92083 C 78.7667 %
217 06-11-2014 00:00:00 11.47917 C 72.8167 %
218 07-11-2014 00:00:00 10.24417 C 71.2000 %
219 08-11-2014 00:00:00 10.84917 C 76.0250 %
220 09-11-2014 00:00:00 10.3475 C 74.0250 %
221 10-11-2014 00:00:00 11.0125 C 77.2000 %
222 11-11-2014 00:00:00 10.78333 C 75.6500 %
223 12-11-2014 00:00:00 11.4225 C 78.0667 %
224 13-11-2014 00:00:00 11.80667 C 79.0000 %
225 14-11-2014 00:00:00 12.14 C 78.7833 %
Sensor: Nr:Datum:Temp:Feuchte:
G-T/H 226 15-11-2014 00:00:00 12.03583 C 78.3833 %
227 16-11-2014 00:00:00 12.005 C 78.9833 %
228 17-11-2014 00:00:00 11.45667 C 77.9083 %
229 18-11-2014 00:00:00 11.54417 C 79.0000 %
230 19-11-2014 00:00:00 11.5525 C 78.1917 %
231 20-11-2014 00:00:00 10.72 C 74.5917 %
232 21-11-2014 00:00:00 9.89917 C 72.6000 %
233 22-11-2014 00:00:00 9.36583 C 72.9667 %
234 23-11-2014 00:00:00 9.58667 C 76.2833 %
235 24-11-2014 00:00:00 9.97333 C 76.4667 %
236 25-11-2014 00:00:00 8.76 C 71.7500 %
237 26-11-2014 00:00:00 8.98417 C 73.9000 %
238 27-11-2014 00:00:00 9.49417 C 75.2417 %
239 28-11-2014 00:00:00 9.59 C 73.8417 %
240 29-11-2014 00:00:00 9.135 C 70.1500 %
241 30-11-2014 00:00:00 8.77083 C 69.6750 %
242 01-12-2014 00:00:00 7.97083 C 67.7833 %
243 02-12-2014 00:00:00 6.86667 C 65.2417 %
244 03-12-2014 00:00:00 7.35583 C 68.5083 %
245 04-12-2014 00:00:00 7.33083 C 67.9500 %
246 05-12-2014 00:00:00 7.93583 C 72.6667 %
247 06-12-2014 00:00:00 8.32333 C 74.1000 %
248 07-12-2014 00:00:00 8.33083 C 74.1000 %
249 08-12-2014 00:00:00 7.65833 C 72.2750 %
250 09-12-2014 00:00:00 7.27917 C 72.7750 %
Sensor: Nr:Datum:Temp:Feuchte:
G-T/H 251 10-12-2014 00:00:00 7.265 C 72.0833 %
252 11-12-2014 00:00:00 7.85667 C 75.6500 %
253 12-12-2014 00:00:00 8.585 C 76.8333 %
254 13-12-2014 00:00:00 8.79167 C 74.4333 %
255 14-12-2014 00:00:00 7.87377 C 72.3279 %
256 15-12-2014 00:00:00 7.2425 C 72.6083 %
257 16-12-2014 00:00:00 8.05126 C 75.7983 %
258 17-12-2014 00:00:00 8.30667 C 75.9417 %
259 18-12-2014 00:00:00 9.53167 C 78.0167 %
260 19-12-2014 00:00:00 10.68583 C 76.9333 %
261 20-12-2014 00:00:00 9.35167 C 70.2833 %
262 21-12-2014 00:00:00 9.10504 C 72.2857 %
263 22-12-2014 00:00:00 9.60167 C 74.4083 %
264 23-12-2014 00:00:00 10.33583 C 75.0167 %
265 24-12-2014 00:00:00 10.54583 C 74.2167 %
266 25-12-2014 00:00:00 9.69333 C 70.9833 %
267 26-12-2014 00:00:00 8.54417 C 69.3333 %
268 27-12-2014 00:00:00 7.8475 C 68.0667 %
269 28-12-2014 00:00:00 6.70333 C 62.4083 %
270 29-12-2014 00:00:00 5.9775 C 65.2500 %
271 30-12-2014 00:00:00 6.58083 C 70.4000 %
272 31-12-2014 00:00:00 7.3375 C 73.0417 %
273 01-01-2015 00:00:00 7.6775 C 72.1500 %
274 02-01-2015 00:00:00 7.65 C 71.8417 %
275 03-01-2015 00:00:00 7.49667 C 70.3167 %
Sensor: Nr:Datum:Temp:Feuchte:
G-T/H 276 04-01-2015 00:00:00 7.1875 C 71.9250 %
277 05-01-2015 00:00:00 6.81167 C 66.4250 %
278 06-01-2015 00:00:00 6.31417 C 67.2000 %
279 07-01-2015 00:00:00 6.57833 C 70.2000 %
280 08-01-2015 00:00:00 7.4925 C 72.5417 %
281 09-01-2015 00:00:00 8.6825 C 74.9750 %
282 10-01-2015 00:00:00 10.68083 C 76.1750 %
283 11-01-2015 00:00:00 9.68667 C 67.1583 %
284 12-01-2015 00:00:00 9.09 C 70.2500 %
285 13-01-2015 00:00:00 10.01333 C 71.3250 %
286 14-01-2015 00:00:00 9.83583 C 68.6667 %
287 15-01-2015 00:00:00 8.9725 C 69.8000 %
288 16-01-2015 00:00:00 9.63333 C 72.8000 %
289 17-01-2015 00:00:00 8.64583 C 69.6333 %
290 18-01-2015 00:00:00 7.1925 C 63.0917 %
291 19-01-2015 00:00:00 6.60583 C 62.7917 %
292 20-01-2015 00:00:00 6.77333 C 62.7167 %
293 21-01-2015 00:00:00 6.3125 C 61.4667 %
294 22-01-2015 00:00:00 6.92583 C 62.8250 %
295 23-01-2015 00:00:00 6.85 C 64.2500 %
296 24-01-2015 00:00:00 6.90667 C 62.2167 %
297 25-01-2015 00:00:00 6.98583 C 71.3583 %
298 26-01-2015 00:00:00 7.25083 C 73.0583 %
299 27-01-2015 00:00:00 7.69333 C 75.4750 %
300 28-01-2015 00:00:00 7.8275 C 74.7250 %
Sensor: Nr:Datum:Temp:Feuchte:
G-T/H 301 29-01-2015 00:00:00 7.26083 C 69.7250 %
302 30-01-2015 00:00:00 7.1 C 70.6750 %
303 31-01-2015 00:00:00 6.745 C 66.2500 %
304 01-02-2015 00:00:00 6.82 C 69.2083 %
305 02-02-2015 00:00:00 7.1025 C 70.7250 %
306 03-02-2015 00:00:00 6.69167 C 65.2917 %
307 04-02-2015 00:00:00 6.07583 C 64.2917 %
308 05-02-2015 00:00:00 5.6975 C 63.6583 %
309 06-02-2015 00:00:00 5.63333 C 62.8750 %
310 07-02-2015 00:00:00 5.60833 C 62.8417 %
311 08-02-2015 00:00:00 6.08167 C 65.9833 %
312 09-02-2015 00:00:00 6.77667 C 68.7083 %
313 10-02-2015 00:00:00 7.82833 C 71.9417 %
314 11-02-2015 00:00:00 8.04333 C 69.1167 %
315 12-02-2015 00:00:00 7.75917 C 65.3750 %
316 13-02-2015 00:00:00 7.4725 C 65.6083 %
317 14-02-2015 00:00:00 6.9375 C 65.3083 %
318 15-02-2015 00:00:00 7.18667 C 64.8917 %
319 16-02-2015 00:00:00 6.68583 C 64.1667 %
320 17-02-2015 00:00:00 7.5275 C 64.5000 %
321 18-02-2015 00:00:00 8.185 C 66.7917 %
322 19-02-2015 00:00:00 7.2275 C 61.3333 %
323 20-02-2015 00:00:00 7.71083 C 65.6417 %
324 21-02-2015 00:00:00 8.42 C 67.9667 %
325 22-02-2015 00:00:00 7.6475 C 65.4583 %
Sensor: Nr:Datum:Temp:Feuchte:
G-T/H 326 23-02-2015 00:00:00 7.175 C 66.7500 %
327 24-02-2015 00:00:00 7.2275 C 70.1333 %
328 25-02-2015 00:00:00 7.2925 C 70.4583 %
329 26-02-2015 00:00:00 7.8375 C 72.2833 %
330 27-02-2015 00:00:00 8.30833 C 72.0000 %
331 28-02-2015 00:00:00 6.84417 C 65.8333 %
332 01-03-2015 00:00:00 7.38167 C 67.8583 %
333 02-03-2015 00:00:00 8.42 C 68.2333 %
334 03-03-2015 00:00:00 7.475 C 65.9000 %
335 04-03-2015 00:00:00 7.65 C 68.4500 %
336 05-03-2015 00:00:00 7.585 C 70.0000 %
337 06-03-2015 00:00:00 7.16583 C 66.8500 %
338 07-03-2015 00:00:00 7.03667 C 65.6083 %
339 08-03-2015 00:00:00 7.45917 C 68.0500 %
340 09-03-2015 00:00:00 8.2575 C 70.6417 %
341 10-03-2015 00:00:00 8.42833 C 71.6167 %
342 11-03-2015 00:00:00 8.21667 C 70.0167 %
343 12-03-2015 00:00:00 7.26833 C 64.0167 %
344 13-03-2015 00:00:00 7.25417 C 62.8500 %
345 14-03-2015 00:00:00 7.70583 C 66.7333 %
346 15-03-2015 00:00:00 8.06667 C 68.9750 %
347 16-03-2015 00:00:00 7.55 C 64.5833 %
348 17-03-2015 00:00:00 7.88667 C 68.5583 %
349 18-03-2015 00:00:00 8.59 C 69.6917 %
350 19-03-2015 00:00:00 9.43667 C 71.4500 %
Sensor: Nr:Datum:Temp:Feuchte:
G-T/H 351 20-03-2015 00:00:00 9.5125 C 71.3167 %
352 21-03-2015 00:00:00 9.23917 C 70.6500 %
353 22-03-2015 00:00:00 8.74545 C 67.5289 %
354 23-03-2015 00:00:00 7.59417 C 63.2833 %
355 24-03-2015 00:00:00 8.16833 C 66.5500 %
356 25-03-2015 00:00:00 9.2225 C 69.1417 %
357 26-03-2015 00:00:00 9.5325 C 66.7917 %
358 27-03-2015 00:00:00 9.40833 C 66.3167 %
359 28-03-2015 00:00:00 9.67333 C 66.9333 %
360 29-03-2015 00:00:00 10.45478 C 70.4000 %
361 30-03-2015 00:00:00 10.31083 C 65.2500 %
362 31-03-2015 00:00:00 10.28583 C 65.0833 %
363 01-04-2015 00:00:00 9.45 C 61.7417 %
364 02-04-2015 00:00:00 9.125 C 62.6750 %
365 03-04-2015 00:00:00 8.76583 C 61.2667 %

Maximal/Minimal-Werte vom 04.04.2014 - 03.04.2015

Sensor Min Max Avg
Temp
(Aussen-T/F)
-6.4 °C
07-02-2015  08:16:17
43.8 °C
09-06-2014  17:28:17
11.14 °C
Feuchte
(Aussen-T/F)
20 %
12-04-2014  15:57:17
95 %
09-04-2014  05:21:17
73.1 %
Temp
(G-T/H)
2 °C
21-01-2015  13:50:17
28.5 °C
18-07-2014  18:33:17
13.13 °C
Feuchte
(G-T/H)
36 %
18-07-2014  17:45:17
84 %
20-09-2014  19:17:17
69.14 %

Die Daten stammen von einer Davis Vantage Pro 2 Wetter-Station und werden unter Linux mit der Software wview2wettercgi und aufbereitet. Alle Angaben erfolgen ohne Gewähr für ihre Vollständigkeit oder Richtigkeit.
Kontakt: Rainer Krienke krienke@uni-koblenz.de . Meine Webseiten an der Uni Koblenz oder privat.
Version: $Revision: 0.78 $